Time;durP1;ratioP1;P1;durP2;ratioP2;P2;SDS_P1;SDS_P2;PMS_P1;PMS_P2;Temp;Humidity;BMP_temperature;BMP_pressure;BME280_temperature;BME280_humidity;BME280_pressure;Samples;Min_cycle;Max_cycle;Signal;HPM_P1;HPM_P2
2021/12/07 00:00:57;;;;;;;16.63;11.93;;;;;;;;;;5070128;28;20229;-63
2021/12/07 00:03:24;;;;;;;17.47;12.97;;;;;;;;;;5061754;28;20230;-63
2021/12/07 00:05:52;;;;;;;18.27;13.03;;;;;;;;;;5079035;28;20205;-63
2021/12/07 00:08:20;;;;;;;17.20;12.53;;;;;;;;;;5066075;28;20248;-64
2021/12/07 00:10:50;;;;;;;16.77;13.20;;;;;;;;;;5078663;28;20240;-63
2021/12/07 00:13:17;;;;;;;17.53;12.67;;;;;;;;;;5062783;28;20208;-64
2021/12/07 00:15:44;;;;;;;19.67;13.20;;;;;;;;;;5057662;28;20208;-64
2021/12/07 00:18:12;;;;;;;19.13;13.93;;;;;;;;;;5054130;28;20217;-63
2021/12/07 00:20:40;;;;;;;19.23;14.03;;;;;;;;;;5054623;28;20726;-64
2021/12/07 00:23:09;;;;;;;19.87;14.63;;;;;;;;;;5078159;28;20667;-63
2021/12/07 00:25:36;;;;;;;21.90;14.67;;;;;;;;;;5061430;28;20560;-64
2021/12/07 00:28:04;;;;;;;21.37;15.37;;;;;;;;;;5080288;28;20275;-63
2021/12/07 00:30:33;;;;;;;22.67;14.33;;;;;;;;;;5066390;28;20229;-64
2021/12/07 00:33:16;;;;;;;21.00;14.73;;;;;;;;;;5065893;28;20201;-64
2021/12/07 00:35:44;;;;;;;19.47;14.47;;;;;;;;;;5054730;28;20245;-64
2021/12/07 00:38:16;;;;;;;20.53;14.43;;;;;;;;;;5060340;28;21530;-63
2021/12/07 00:40:44;;;;;;;22.27;15.27;;;;;;;;;;5071563;28;20229;-63
2021/12/07 00:43:12;;;;;;;20.47;13.97;;;;;;;;;;5069127;28;20228;-62
2021/12/07 00:45:41;;;;;;;21.23;14.37;;;;;;;;;;5076929;28;20202;-64
2021/12/07 00:48:09;;;;;;;21.67;14.93;;;;;;;;;;5053007;28;20599;-63
2021/12/07 00:50:38;;;;;;;20.40;14.17;;;;;;;;;;5082332;28;20225;-63
2021/12/07 00:53:06;;;;;;;20.03;14.07;;;;;;;;;;5075748;28;20213;-64
2021/12/07 00:55:35;;;;;;;20.53;14.10;;;;;;;;;;5052578;28;20245;-64
2021/12/07 00:58:16;;;;;;;23.73;15.43;;;;;;;;;;5079742;28;20232;-63
2021/12/07 01:00:44;;;;;;;22.50;15.40;;;;;;;;;;5051839;28;20232;-64
2021/12/07 01:03:12;;;;;;;22.07;14.97;;;;;;;;;;5070774;28;20258;-63
2021/12/07 01:05:46;;;;;;;23.97;15.33;;;;;;;;;;5051666;28;20368;-64
2021/12/07 01:08:51;;;;;;;20.87;14.70;;;;;;;;;;5062814;28;20201;-63
2021/12/07 01:25:00;;;;;;;22.93;15.90;;;;;;;;;;5062029;28;20255;-63
2021/12/07 01:27:28;;;;;;;22.70;15.07;;;;;;;;;;5057162;28;20205;-64
2021/12/07 01:30:07;;;;;;;22.67;15.60;;;;;;;;;;5074458;28;20235;-63
2021/12/07 01:46:11;;;;;;;22.63;15.03;;;;;;;;;;5055322;28;20215;-63
2021/12/07 01:59:49;;;;;;;20.23;12.37;;;;;;;;;;5060393;28;20800;-64
2021/12/07 02:02:17;;;;;;;15.67;11.57;;;;;;;;;;5080526;28;20224;-63
2021/12/07 02:04:46;;;;;;;17.97;11.97;;;;;;;;;;5064292;28;20205;-64
2021/12/07 02:07:14;;;;;;;18.27;12.03;;;;;;;;;;5067466;28;20201;-63
2021/12/07 02:09:45;;;;;;;17.37;12.00;;;;;;;;;;5053184;28;20245;-63
2021/12/07 02:12:13;;;;;;;15.73;11.27;;;;;;;;;;5057557;28;20210;-62
2021/12/07 02:14:41;;;;;;;18.20;11.23;;;;;;;;;;5056927;28;20214;-63
2021/12/07 02:17:11;;;;;;;16.20;11.17;;;;;;;;;;5061289;28;20212;-64
2021/12/07 02:19:39;;;;;;;14.63;10.43;;;;;;;;;;5053900;28;20231;-63
2021/12/07 02:22:07;;;;;;;13.27;9.80;;;;;;;;;;5061498;28;20205;-63
2021/12/07 02:24:34;;;;;;;11.83;9.60;;;;;;;;;;5067875;28;20579;-63
2021/12/07 02:27:03;;;;;;;12.63;9.10;;;;;;;;;;5063780;28;20205;-63
2021/12/07 02:29:30;;;;;;;10.77;8.03;;;;;;;;;;5064128;28;20279;-63
2021/12/07 02:31:59;;;;;;;11.67;7.13;;;;;;;;;;5064162;28;20264;-63
2021/12/07 02:34:27;;;;;;;7.87;6.70;;;;;;;;;;5063063;28;20255;-63
2021/12/07 02:36:54;;;;;;;9.97;7.67;;;;;;;;;;5072681;28;20217;-64
2021/12/07 02:39:30;;;;;;;9.00;6.70;;;;;;;;;;5072063;28;20201;-63
2021/12/07 02:41:57;;;;;;;8.10;6.03;;;;;;;;;;5061166;28;20232;-63
2021/12/07 02:44:25;;;;;;;9.70;6.23;;;;;;;;;;5063363;28;20212;-64
2021/12/07 02:46:52;;;;;;;6.73;5.50;;;;;;;;;;5062432;28;20202;-63
2021/12/07 02:49:21;;;;;;;7.33;5.20;;;;;;;;;;5059798;28;20229;-64
2021/12/07 02:51:48;;;;;;;3.60;3.30;;;;;;;;;;5078199;28;20271;-63
2021/12/07 02:54:17;;;;;;;4.23;3.00;;;;;;;;;;5064872;28;20860;-64
2021/12/07 02:56:45;;;;;;;4.23;2.50;;;;;;;;;;5081744;28;20224;-62
2021/12/07 02:59:12;;;;;;;2.23;2.03;;;;;;;;;;5070742;28;20676;-64
2021/12/07 03:01:46;;;;;;;1.93;1.83;;;;;;;;;;5058048;28;20237;-63
2021/12/07 03:04:22;;;;;;;1.33;1.33;;;;;;;;;;5056070;28;20326;-63
2021/12/07 03:07:10;;;;;;;1.57;1.47;;;;;;;;;;5055211;28;20213;-62
2021/12/07 03:26:09;;;;;;;1.10;1.10;;;;;;;;;;5061090;28;20679;-63
2021/12/07 03:28:38;;;;;;;1.40;1.30;;;;;;;;;;5065232;28;20205;-62
2021/12/07 03:31:06;;;;;;;1.10;1.10;;;;;;;;;;5052832;28;20236;-63
2021/12/07 03:33:34;;;;;;;1.00;0.90;;;;;;;;;;5079538;28;20277;-63
2021/12/07 03:36:04;;;;;;;1.20;1.10;;;;;;;;;;5062940;28;20206;-65
2021/12/07 03:38:32;;;;;;;1.10;1.10;;;;;;;;;;5056292;28;20209;-63
2021/12/07 03:40:59;;;;;;;1.10;1.10;;;;;;;;;;5061532;28;20233;-62
2021/12/07 03:43:27;;;;;;;1.00;1.00;;;;;;;;;;5076608;28;20201;-62
2021/12/07 03:45:54;;;;;;;1.03;1.03;;;;;;;;;;5068247;28;20201;-64
2021/12/07 03:48:22;;;;;;;1.00;1.00;;;;;;;;;;5061571;28;20785;-63
2021/12/07 03:50:49;;;;;;;0.93;0.93;;;;;;;;;;5056777;28;20244;-64
2021/12/07 03:53:16;;;;;;;0.90;0.90;;;;;;;;;;5050896;28;23007;-63
2021/12/07 03:55:44;;;;;;;0.90;0.90;;;;;;;;;;5054180;28;20209;-63
2021/12/07 03:58:12;;;;;;;3.90;1.10;;;;;;;;;;5075950;28;20208;-63
2021/12/07 04:00:41;;;;;;;1.10;1.10;;;;;;;;;;5056577;28;20240;-64
2021/12/07 04:03:11;;;;;;;1.30;1.20;;;;;;;;;;5076991;28;20659;-63
2021/12/07 04:05:45;;;;;;;1.30;1.20;;;;;;;;;;5064587;28;20289;-62
2021/12/07 04:08:15;;;;;;;1.20;1.20;;;;;;;;;;5069891;28;20207;-62
2021/12/07 04:10:42;;;;;;;1.27;1.23;;;;;;;;;;5053028;28;20229;-64
2021/12/07 04:13:10;;;;;;;1.43;1.33;;;;;;;;;;5071108;28;20221;-62
2021/12/07 04:15:38;;;;;;;1.23;1.23;;;;;;;;;;5069926;28;20607;-63
2021/12/07 04:18:05;;;;;;;1.10;1.10;;;;;;;;;;5058144;28;20326;-63
2021/12/07 04:20:33;;;;;;;1.40;1.30;;;;;;;;;;5052036;28;20312;-63
2021/12/07 04:23:01;;;;;;;1.30;1.10;;;;;;;;;;5063823;28;20202;-63
2021/12/07 04:25:28;;;;;;;1.40;1.40;;;;;;;;;;5063132;28;20266;-64
2021/12/07 04:27:56;;;;;;;1.30;1.30;;;;;;;;;;5071684;28;20754;-64
2021/12/07 04:30:25;;;;;;;1.43;1.30;;;;;;;;;;5081870;28;20256;-64
2021/12/07 04:32:53;;;;;;;2.10;1.40;;;;;;;;;;5078604;28;20213;-63
2021/12/07 04:35:21;;;;;;;2.63;1.90;;;;;;;;;;5054746;28;20559;-63
2021/12/07 04:37:49;;;;;;;3.73;1.50;;;;;;;;;;5078267;28;20226;-63
2021/12/07 04:40:18;;;;;;;1.57;1.47;;;;;;;;;;5055980;28;20316;-64
2021/12/07 04:42:45;;;;;;;1.70;1.60;;;;;;;;;;5058290;28;20671;-63
2021/12/07 04:45:57;;;;;;;2.00;1.60;;;;;;;;;;5080434;28;20200;-62
2021/12/07 04:59:10;;;;;;;3.40;1.70;;;;;;;;;;5052709;28;21178;-63
2021/12/07 05:01:37;;;;;;;2.00;1.60;;;;;;;;;;5053244;28;20251;-64
2021/12/07 05:04:14;;;;;;;2.40;1.57;;;;;;;;;;5054962;28;20214;-64
2021/12/07 05:06:48;;;;;;;1.77;1.40;;;;;;;;;;5076298;28;20209;-62
2021/12/07 05:12:04;;;;;;;2.43;1.73;;;;;;;;;;5058548;28;20225;-63
2021/12/07 05:14:36;;;;;;;3.60;1.90;;;;;;;;;;5064573;28;20213;-63
2021/12/07 05:39:13;;;;;;;2.70;1.70;;;;;;;;;;5057628;28;20205;-64
2021/12/07 05:41:40;;;;;;;1.87;1.70;;;;;;;;;;5054744;28;20240;-63
2021/12/07 05:44:08;;;;;;;5.53;2.00;;;;;;;;;;5055571;28;20202;-64
2021/12/07 05:46:35;;;;;;;5.30;1.50;;;;;;;;;;5053304;28;20205;-64
2021/12/07 05:49:03;;;;;;;141.17;48.33;;;;;;;;;;5057422;28;20233;-63
2021/12/07 05:51:30;;;;;;;1.83;1.73;;;;;;;;;;5039258;28;20236;-63
2021/12/07 05:53:58;;;;;;;2.40;1.77;;;;;;;;;;5057649;28;20259;-63
2021/12/07 05:56:25;;;;;;;2.80;2.00;;;;;;;;;;5056017;28;20210;-64
2021/12/07 05:58:52;;;;;;;1.90;1.53;;;;;;;;;;5080181;28;20268;-63
2021/12/07 06:01:20;;;;;;;2.90;1.53;;;;;;;;;;5070885;28;20282;-62
2021/12/07 06:03:47;;;;;;;3.83;1.47;;;;;;;;;;5078406;28;20205;-64
2021/12/07 06:06:15;;;;;;;1.67;1.50;;;;;;;;;;5077131;28;20205;-63
2021/12/07 06:08:42;;;;;;;4.20;1.90;;;;;;;;;;5055724;28;20240;-63
2021/12/07 06:11:10;;;;;;;2.73;1.80;;;;;;;;;;5057733;28;20230;-62
2021/12/07 06:13:37;;;;;;;3.37;1.90;;;;;;;;;;5078553;28;20209;-63
2021/12/07 06:16:07;;;;;;;4.83;2.03;;;;;;;;;;5064258;28;20212;-63
2021/12/07 06:18:36;;;;;;;2.83;1.90;;;;;;;;;;5081581;28;20289;-62
2021/12/07 06:21:04;;;;;;;6.23;1.87;;;;;;;;;;5061144;28;20225;-65
2021/12/07 06:23:31;;;;;;;4.40;1.80;;;;;;;;;;5072681;28;20201;-63
2021/12/07 06:25:59;;;;;;;1.67;1.57;;;;;;;;;;5072684;28;20734;-64
2021/12/07 06:28:27;;;;;;;8.80;6.03;;;;;;;;;;5058689;28;20206;-64
2021/12/07 06:30:54;;;;;;;5.63;2.00;;;;;;;;;;5072646;28;20716;-63
2021/12/07 06:33:23;;;;;;;2.57;1.80;;;;;;;;;;5072735;28;20555;-64
2021/12/07 06:35:56;;;;;;;4.27;1.93;;;;;;;;;;5052919;28;20279;-64
2021/12/07 06:38:29;;;;;;;4.13;1.67;;;;;;;;;;5055979;28;20720;-64
2021/12/07 06:40:57;;;;;;;3.27;1.97;;;;;;;;;;5077915;28;20233;-63
2021/12/07 06:43:24;;;;;;;4.37;2.13;;;;;;;;;;5067369;28;20197;-64
2021/12/07 06:45:52;;;;;;;3.17;1.90;;;;;;;;;;5071888;28;20210;-64
2021/12/07 06:48:19;;;;;;;7.40;3.03;;;;;;;;;;5060160;28;20210;-64
2021/12/07 06:50:47;;;;;;;2.73;1.90;;;;;;;;;;5079803;28;20232;-63
2021/12/07 06:53:15;;;;;;;3.80;2.97;;;;;;;;;;5065554;28;20243;-64
2021/12/07 06:55:43;;;;;;;2.87;2.43;;;;;;;;;;5054216;28;20197;-62
2021/12/07 06:58:10;;;;;;;7.13;2.30;;;;;;;;;;5077437;28;20206;-64
2021/12/07 07:00:38;;;;;;;3.90;2.23;;;;;;;;;;5055553;28;21152;-62
2021/12/07 07:03:06;;;;;;;4.67;2.03;;;;;;;;;;5067769;28;20212;-63
2021/12/07 07:05:34;;;;;;;4.20;2.30;;;;;;;;;;5068847;28;20206;-63
2021/12/07 07:08:06;;;;;;;3.03;1.93;;;;;;;;;;5052082;28;20575;-64
2021/12/07 07:10:34;;;;;;;7.10;3.80;;;;;;;;;;5063123;28;20225;-63
2021/12/07 07:13:01;;;;;;;9.17;6.30;;;;;;;;;;5066505;28;20209;-63
2021/12/07 07:15:29;;;;;;;6.07;4.17;;;;;;;;;;5065771;28;20211;-64
2021/12/07 07:17:56;;;;;;;2.30;2.10;;;;;;;;;;5080067;28;20252;-63
2021/12/07 07:20:24;;;;;;;5.00;2.70;;;;;;;;;;5079466;28;20236;-63
2021/12/07 07:22:51;;;;;;;5.47;3.07;;;;;;;;;;5069860;28;20212;-64
2021/12/07 07:25:19;;;;;;;6.13;3.20;;;;;;;;;;5060472;28;20202;-64
2021/12/07 07:27:46;;;;;;;2.13;1.70;;;;;;;;;;5062363;28;20198;-64
2021/12/07 07:30:15;;;;;;;3.17;2.50;;;;;;;;;;5076405;28;20639;-64
2021/12/07 07:32:43;;;;;;;2.20;2.10;;;;;;;;;;5057636;28;20664;-63
2021/12/07 07:35:10;;;;;;;3.60;2.10;;;;;;;;;;5073190;28;20212;-63
2021/12/07 07:37:39;;;;;;;1.90;1.80;;;;;;;;;;5053181;28;20291;-63
2021/12/07 07:40:08;;;;;;;2.20;2.00;;;;;;;;;;5071854;28;20238;-62
2021/12/07 07:42:39;;;;;;;4.37;2.07;;;;;;;;;;5077495;28;20316;-63
2021/12/07 07:45:07;;;;;;;2.30;1.70;;;;;;;;;;5075232;28;20202;-63
2021/12/07 07:47:35;;;;;;;2.70;1.87;;;;;;;;;;5068080;28;20202;-64
2021/12/07 07:50:02;;;;;;;2.50;2.00;;;;;;;;;;5056109;28;20222;-64
2021/12/07 07:52:29;;;;;;;2.97;1.90;;;;;;;;;;5057572;28;20231;-65
2021/12/07 07:54:57;;;;;;;4.40;2.60;;;;;;;;;;5064067;28;20620;-63
2021/12/07 07:57:24;;;;;;;14.27;5.03;;;;;;;;;;5075474;28;20663;-63
2021/12/07 07:59:51;;;;;;;1.67;1.57;;;;;;;;;;5081947;28;20734;-63
2021/12/07 08:02:19;;;;;;;5.57;3.37;;;;;;;;;;5061784;28;20221;-63
2021/12/07 08:04:47;;;;;;;5.40;2.37;;;;;;;;;;5057008;28;20602;-63
2021/12/07 08:07:14;;;;;;;2.60;1.90;;;;;;;;;;5052021;28;20244;-64
2021/12/07 08:09:42;;;;;;;2.73;1.87;;;;;;;;;;5051451;28;20283;-62
2021/12/07 08:12:09;;;;;;;5.97;2.80;;;;;;;;;;5048227;28;20209;-63
2021/12/07 08:14:37;;;;;;;2.63;1.87;;;;;;;;;;5065382;28;20209;-64
2021/12/07 08:17:04;;;;;;;5.50;2.30;;;;;;;;;;5070682;28;20214;-64
2021/12/07 08:19:33;;;;;;;4.47;1.80;;;;;;;;;;5059103;28;20217;-63
2021/12/07 08:22:00;;;;;;;4.17;2.17;;;;;;;;;;5056603;28;20713;-66
2021/12/07 08:24:28;;;;;;;6.20;2.10;;;;;;;;;;5059598;28;20203;-63
2021/12/07 08:26:55;;;;;;;5.03;2.20;;;;;;;;;;5070305;28;20231;-65
2021/12/07 08:29:36;;;;;;;3.10;2.00;;;;;;;;;;5067514;28;20197;-63
2021/12/07 08:32:03;;;;;;;3.20;2.53;;;;;;;;;;5066881;28;20214;-64
2021/12/07 08:34:31;;;;;;;4.70;2.20;;;;;;;;;;5074688;28;20213;-63
2021/12/07 08:36:58;;;;;;;5.03;2.33;;;;;;;;;;5073389;28;20578;-63
2021/12/07 08:39:26;;;;;;;2.87;2.00;;;;;;;;;;5070726;28;20213;-63
2021/12/07 08:41:53;;;;;;;2.30;2.07;;;;;;;;;;5070242;28;20240;-62
2021/12/07 08:44:21;;;;;;;6.63;2.37;;;;;;;;;;5069462;28;20888;-63
2021/12/07 08:46:48;;;;;;;4.30;1.80;;;;;;;;;;5068772;28;20201;-63
2021/12/07 08:49:16;;;;;;;4.63;2.30;;;;;;;;;;5088948;28;20571;-63
2021/12/07 08:51:43;;;;;;;3.20;1.80;;;;;;;;;;5055123;28;20740;-63
2021/12/07 08:59:52;;;;;;;3.67;2.00;;;;;;;;;;5056224;28;20209;-63
2021/12/07 09:02:21;;;;;;;3.40;1.83;;;;;;;;;;5062919;28;20217;-64
2021/12/07 09:04:49;;;;;;;2.43;1.70;;;;;;;;;;5055537;28;20293;-62
2021/12/07 09:07:17;;;;;;;6.23;2.30;;;;;;;;;;5075628;28;20255;-64
2021/12/07 09:09:44;;;;;;;4.13;2.60;;;;;;;;;;5054120;28;20198;-64
2021/12/07 09:12:13;;;;;;;5.20;2.93;;;;;;;;;;5055696;28;20214;-62
2021/12/07 09:14:42;;;;;;;5.63;3.60;;;;;;;;;;5054146;28;20800;-63
2021/12/07 09:17:10;;;;;;;7.80;6.53;;;;;;;;;;5070152;28;20831;-63
2021/12/07 09:19:38;;;;;;;6.97;4.87;;;;;;;;;;5058626;28;20212;-64
2021/12/07 09:22:06;;;;;;;6.30;3.30;;;;;;;;;;5080629;28;20237;-63
2021/12/07 09:24:53;;;;;;;5.93;3.43;;;;;;;;;;5069589;28;20695;-64
2021/12/07 09:27:20;;;;;;;7.63;3.00;;;;;;;;;;5072241;28;20205;-64
2021/12/07 09:29:48;;;;;;;4.27;2.70;;;;;;;;;;5070457;28;20205;-64
2021/12/07 09:32:15;;;;;;;9.57;3.20;;;;;;;;;;5070930;28;20805;-64
2021/12/07 09:34:42;;;;;;;8.50;5.90;;;;;;;;;;5055164;28;21762;-64
2021/12/07 09:37:10;;;;;;;4.20;2.17;;;;;;;;;;5058607;28;20270;-63
2021/12/07 09:39:40;;;;;;;6.00;3.80;;;;;;;;;;5055949;28;20268;-63
2021/12/07 09:42:08;;;;;;;8.97;4.80;;;;;;;;;;5074656;28;20728;-64
2021/12/07 09:44:35;;;;;;;4.20;2.20;;;;;;;;;;5058840;28;20976;-63
2021/12/07 09:47:03;;;;;;;4.47;2.57;;;;;;;;;;5072133;28;20241;-63
2021/12/07 09:49:30;;;;;;;5.60;2.30;;;;;;;;;;5055881;28;20231;-63
2021/12/07 09:51:58;;;;;;;6.67;3.30;;;;;;;;;;5067896;28;20940;-62
2021/12/07 09:54:25;;;;;;;8.50;4.33;;;;;;;;;;5053500;28;20244;-62
2021/12/07 09:56:53;;;;;;;5.80;3.63;;;;;;;;;;5051333;28;20636;-65
2021/12/07 09:59:20;;;;;;;14.77;8.30;;;;;;;;;;5058224;28;20983;-64
2021/12/07 10:01:48;;;;;;;6.10;3.90;;;;;;;;;;5070121;28;20564;-64
2021/12/07 10:04:16;;;;;;;6.73;3.73;;;;;;;;;;5050357;28;20355;-63
2021/12/07 10:06:48;;;;;;;6.67;4.27;;;;;;;;;;5056503;28;20201;-63
2021/12/07 10:09:15;;;;;;;13.50;4.87;;;;;;;;;;5056748;28;20197;-64
2021/12/07 10:11:42;;;;;;;9.70;5.30;;;;;;;;;;5075774;28;20241;-64
2021/12/07 10:14:10;;;;;;;6.17;2.70;;;;;;;;;;5071821;28;20507;-61
2021/12/07 10:16:43;;;;;;;8.33;3.37;;;;;;;;;;5067373;28;20475;-64
2021/12/07 10:19:11;;;;;;;8.47;4.73;;;;;;;;;;5051722;28;21553;-64
2021/12/07 10:21:41;;;;;;;5.57;2.57;;;;;;;;;;5049983;28;20233;-64
2021/12/07 10:24:11;;;;;;;6.47;1.77;;;;;;;;;;5053752;28;20220;-63
2021/12/07 10:26:41;;;;;;;4.07;2.00;;;;;;;;;;5057834;28;20202;-63
2021/12/07 10:29:16;;;;;;;6.27;1.73;;;;;;;;;;5071091;28;20209;-64
2021/12/07 10:31:52;;;;;;;9.33;3.40;;;;;;;;;;5053173;28;20310;-63
2021/12/07 10:34:21;;;;;;;6.60;2.80;;;;;;;;;;5073942;28;20205;-63
2021/12/07 10:36:50;;;;;;;3.37;2.40;;;;;;;;;;5060035;28;20244;-65
2021/12/07 10:39:25;;;;;;;5.53;2.73;;;;;;;;;;5054182;28;20346;-65
2021/12/07 10:41:57;;;;;;;2.20;1.37;;;;;;;;;;5065607;28;20232;-63
2021/12/07 10:44:44;;;;;;;4.90;2.27;;;;;;;;;;5072926;28;20350;-63
2021/12/07 10:47:13;;;;;;;4.00;1.30;;;;;;;;;;5053750;28;20274;-63
2021/12/07 10:49:43;;;;;;;2.60;1.20;;;;;;;;;;5054155;28;20214;-63
2021/12/07 10:52:18;;;;;;;1.43;1.33;;;;;;;;;;5079239;28;20228;-62
2021/12/07 10:54:45;;;;;;;13.23;7.80;;;;;;;;;;5049640;28;20324;-64
2021/12/07 10:57:32;;;;;;;38.07;18.20;;;;;;;;;;5051083;28;20239;-64
2021/12/07 11:00:03;;;;;;;5.67;5.17;;;;;;;;;;5061068;28;20229;-63
2021/12/07 11:02:33;;;;;;;4.63;2.03;;;;;;;;;;5062066;28;20229;-64
2021/12/07 11:05:03;;;;;;;3.70;2.00;;;;;;;;;;5076008;28;20233;-63
2021/12/07 11:07:34;;;;;;;3.07;1.20;;;;;;;;;;5074552;28;20197;-64
2021/12/07 11:10:09;;;;;;;5.40;1.80;;;;;;;;;;5056303;28;20225;-64
2021/12/07 11:12:51;;;;;;;5.60;1.57;;;;;;;;;;5059175;28;20202;-63
2021/12/07 11:15:24;;;;;;;4.97;1.37;;;;;;;;;;5074555;28;20556;-63
2021/12/07 11:17:53;;;;;;;3.20;1.90;;;;;;;;;;5080465;28;20205;-63
2021/12/07 11:20:20;;;;;;;2.53;1.10;;;;;;;;;;5064409;28;20233;-64
2021/12/07 11:22:50;;;;;;;4.97;1.30;;;;;;;;;;5060809;28;20230;-64
2021/12/07 11:31:14;;;;;;;1.50;1.30;;;;;;;;;;5061287;28;20221;-63
2021/12/07 11:33:42;;;;;;;3.37;1.60;;;;;;;;;;5062464;28;20305;-63
2021/12/07 11:36:17;;;;;;;4.53;1.30;;;;;;;;;;5067644;28;20343;-63
2021/12/07 11:38:47;;;;;;;4.20;1.50;;;;;;;;;;5077175;28;20215;-63
2021/12/07 11:41:20;;;;;;;3.43;1.43;;;;;;;;;;5076908;28;20229;-63
2021/12/07 11:43:56;;;;;;;2.60;1.27;;;;;;;;;;5059657;28;20702;-64
2021/12/07 11:46:24;;;;;;;3.73;1.70;;;;;;;;;;5079125;28;20210;-64
2021/12/07 11:49:04;;;;;;;2.00;1.20;;;;;;;;;;5075437;28;23317;-63
2021/12/07 11:51:32;;;;;;;1.50;1.40;;;;;;;;;;5057633;28;20221;-63
2021/12/07 11:53:59;;;;;;;4.00;1.80;;;;;;;;;;5080746;28;20204;-64
2021/12/07 11:56:27;;;;;;;6.87;3.50;;;;;;;;;;5079007;28;20652;-64
2021/12/07 11:58:54;;;;;;;3.17;1.60;;;;;;;;;;5073394;28;20263;-63
2021/12/07 12:01:41;;;;;;;2.47;1.20;;;;;;;;;;5057558;28;20234;-64
2021/12/07 12:04:09;;;;;;;6.63;1.83;;;;;;;;;;5077421;28;20198;-64
2021/12/07 12:06:42;;;;;;;2.00;1.13;;;;;;;;;;5075362;28;20671;-64
2021/12/07 12:09:10;;;;;;;3.90;1.57;;;;;;;;;;5061924;28;20598;-63
2021/12/07 12:11:45;;;;;;;1.93;1.53;;;;;;;;;;5071657;28;20237;-63
2021/12/07 12:14:33;;;;;;;1.93;1.30;;;;;;;;;;5072016;28;20447;-63
2021/12/07 12:17:09;;;;;;;7.03;3.47;;;;;;;;;;5064944;28;20205;-64
2021/12/07 12:19:39;;;;;;;4.63;1.37;;;;;;;;;;5075103;28;20644;-62
2021/12/07 12:22:42;;;;;;;11.97;5.47;;;;;;;;;;5078401;28;20241;-64
2021/12/07 12:25:12;;;;;;;3.67;2.90;;;;;;;;;;4995429;28;20248;-64
2021/12/07 12:27:41;;;;;;;2.60;1.80;;;;;;;;;;5045016;28;20580;-64
2021/12/07 12:30:09;;;;;;;2.10;1.20;;;;;;;;;;5076748;28;20304;-64
2021/12/07 12:32:41;;;;;;;9.30;4.13;;;;;;;;;;5059471;28;20251;-62
2021/12/07 12:35:10;;;;;;;4.73;1.90;;;;;;;;;;5061811;28;20211;-64
2021/12/07 12:37:38;;;;;;;5.27;1.20;;;;;;;;;;5066309;28;20209;-62
2021/12/07 12:40:06;;;;;;;3.73;1.40;;;;;;;;;;5060567;28;20233;-62
2021/12/07 12:42:53;;;;;;;4.00;1.30;;;;;;;;;;5066276;28;20222;-63
2021/12/07 12:45:22;;;;;;;2.53;1.60;;;;;;;;;;5077006;28;20209;-63
2021/12/07 12:48:12;;;;;;;2.63;1.20;;;;;;;;;;5079127;28;20208;-62
2021/12/07 12:50:43;;;;;;;4.90;1.40;;;;;;;;;;5054420;28;20252;-64
2021/12/07 12:53:12;;;;;;;2.93;1.47;;;;;;;;;;5061902;28;20245;-64
2021/12/07 12:55:48;;;;;;;2.40;1.50;;;;;;;;;;5061983;28;20216;-62
2021/12/07 12:58:15;;;;;;;3.77;1.43;;;;;;;;;;5080406;28;20205;-64
2021/12/07 13:01:01;;;;;;;2.90;1.30;;;;;;;;;;5079008;28;20225;-64
2021/12/07 13:03:41;;;;;;;2.57;1.10;;;;;;;;;;5059791;28;20233;-63
2021/12/07 13:06:11;;;;;;;3.53;1.40;;;;;;;;;;5058113;28;20202;-64
2021/12/07 13:08:52;;;;;;;1.53;1.43;;;;;;;;;;5060399;28;20209;-64
2021/12/07 13:11:35;;;;;;;3.20;2.00;;;;;;;;;;5076868;28;20275;-63
2021/12/07 13:14:04;;;;;;;2.13;1.70;;;;;;;;;;5066944;28;20567;-63
2021/12/07 13:16:33;;;;;;;2.40;1.40;;;;;;;;;;5056207;28;20206;-64
2021/12/07 13:19:07;;;;;;;2.30;1.40;;;;;;;;;;5070457;28;20276;-64
2021/12/07 13:21:42;;;;;;;5.57;1.87;;;;;;;;;;5057633;28;20839;-63
2021/12/07 13:24:31;;;;;;;2.53;1.90;;;;;;;;;;5072517;28;20221;-63
2021/12/07 13:26:58;;;;;;;4.93;1.50;;;;;;;;;;5075134;28;20259;-63
2021/12/07 13:29:27;;;;;;;3.50;1.40;;;;;;;;;;5083148;28;20200;-64
2021/12/07 13:31:56;;;;;;;2.17;1.90;;;;;;;;;;5080385;28;20710;-64
2021/12/07 13:34:31;;;;;;;4.13;1.70;;;;;;;;;;5070450;28;20210;-64
2021/12/07 13:37:04;;;;;;;4.83;2.40;;;;;;;;;;5061259;28;20659;-64
2021/12/07 13:39:38;;;;;;;4.40;1.60;;;;;;;;;;5063936;28;20202;-64
2021/12/07 13:42:08;;;;;;;2.57;1.50;;;;;;;;;;5053824;28;20225;-64
2021/12/07 13:44:39;;;;;;;5.03;1.97;;;;;;;;;;5078760;28;20242;-64
2021/12/07 13:47:26;;;;;;;2.33;1.20;;;;;;;;;;5079725;28;20206;-63
2021/12/07 13:49:59;;;;;;;1.60;1.37;;;;;;;;;;5059547;28;20214;-64
2021/12/07 13:52:29;;;;;;;1.17;1.10;;;;;;;;;;5059741;28;20249;-65
2021/12/07 13:54:58;;;;;;;2.87;1.40;;;;;;;;;;5055206;28;20213;-64
2021/12/07 13:57:27;;;;;;;2.37;1.30;;;;;;;;;;5076549;28;20216;-65
2021/12/07 14:00:04;;;;;;;2.17;1.10;;;;;;;;;;5076295;28;20224;-64
2021/12/07 14:02:32;;;;;;;4.70;1.10;;;;;;;;;;5072492;28;20225;-64
2021/12/07 14:05:01;;;;;;;2.17;1.20;;;;;;;;;;5053359;28;20213;-64
2021/12/07 14:07:31;;;;;;;4.33;1.30;;;;;;;;;;5061979;28;20216;-64
2021/12/07 14:10:04;;;;;;;1.83;1.30;;;;;;;;;;5051573;28;20687;-63
2021/12/07 14:12:32;;;;;;;2.67;1.30;;;;;;;;;;5063595;28;20206;-63
2021/12/07 14:15:07;;;;;;;4.57;1.60;;;;;;;;;;5064357;28;20201;-61
2021/12/07 14:17:45;;;;;;;7.83;1.83;;;;;;;;;;5074407;28;20861;-63
2021/12/07 14:20:13;;;;;;;2.60;1.20;;;;;;;;;;5082797;28;20238;-63
2021/12/07 14:22:45;;;;;;;4.70;1.50;;;;;;;;;;5064443;28;20225;-63
2021/12/07 14:25:16;;;;;;;3.00;1.40;;;;;;;;;;5078232;28;20210;-64
2021/12/07 14:27:44;;;;;;;3.87;1.60;;;;;;;;;;5064131;28;20255;-63
2021/12/07 14:30:13;;;;;;;3.80;1.27;;;;;;;;;;5065253;28;20218;-63
2021/12/07 14:32:41;;;;;;;5.70;1.50;;;;;;;;;;5072775;28;20214;-64
2021/12/07 14:35:10;;;;;;;1.80;1.40;;;;;;;;;;5079022;28;20613;-64
2021/12/07 14:37:38;;;;;;;2.17;1.60;;;;;;;;;;5066288;28;20213;-64
2021/12/07 14:40:06;;;;;;;4.67;1.67;;;;;;;;;;5078477;28;20228;-64
2021/12/07 14:42:34;;;;;;;2.87;1.50;;;;;;;;;;5061242;28;20211;-62
2021/12/07 14:45:01;;;;;;;3.77;1.53;;;;;;;;;;5080457;28;20285;-65
2021/12/07 14:47:29;;;;;;;1.50;1.40;;;;;;;;;;5067715;28;20266;-64
2021/12/07 14:49:57;;;;;;;2.67;1.40;;;;;;;;;;5078651;28;20202;-64
2021/12/07 14:52:26;;;;;;;5.37;1.67;;;;;;;;;;5078411;28;20222;-62
2021/12/07 14:54:55;;;;;;;3.43;1.70;;;;;;;;;;5076983;28;20210;-64
2021/12/07 14:57:22;;;;;;;3.30;1.70;;;;;;;;;;5061527;28;20201;-63
2021/12/07 14:59:51;;;;;;;2.80;1.70;;;;;;;;;;5079748;28;20210;-63
2021/12/07 15:02:19;;;;;;;4.60;2.10;;;;;;;;;;5066969;28;20205;-63
2021/12/07 15:05:01;;;;;;;6.67;3.60;;;;;;;;;;5071428;28;20602;-64
2021/12/07 15:07:32;;;;;;;5.17;2.93;;;;;;;;;;5077120;28;20213;-63
2021/12/07 15:10:06;;;;;;;13.70;6.33;;;;;;;;;;5075304;28;20821;-64
2021/12/07 15:12:40;;;;;;;14.13;5.87;;;;;;;;;;5080863;28;20214;-63
2021/12/07 15:15:09;;;;;;;9.63;4.70;;;;;;;;;;5062973;28;20296;-63
2021/12/07 15:17:37;;;;;;;9.03;3.37;;;;;;;;;;5082303;28;21345;-64
2021/12/07 15:20:10;;;;;;;4.67;3.80;;;;;;;;;;5063836;28;20233;-64
2021/12/07 15:22:37;;;;;;;9.67;4.37;;;;;;;;;;5079043;28;21151;-64
2021/12/07 15:25:05;;;;;;;7.13;4.17;;;;;;;;;;5068683;28;20567;-64
2021/12/07 15:27:32;;;;;;;8.07;4.00;;;;;;;;;;5069629;28;20198;-63
2021/12/07 15:30:00;;;;;;;6.37;3.50;;;;;;;;;;5062120;28;20217;-62
2021/12/07 15:32:28;;;;;;;6.63;3.10;;;;;;;;;;5079909;28;20201;-65
2021/12/07 15:34:55;;;;;;;3.80;3.00;;;;;;;;;;5080801;28;20219;-63
2021/12/07 15:37:24;;;;;;;4.93;3.23;;;;;;;;;;5075501;28;20203;-64
2021/12/07 15:39:53;;;;;;;6.77;4.27;;;;;;;;;;5074849;28;20213;-63
2021/12/07 15:42:22;;;;;;;9.10;5.20;;;;;;;;;;5075096;28;20624;-64
2021/12/07 15:44:54;;;;;;;9.07;4.83;;;;;;;;;;5072262;28;20225;-64
2021/12/07 15:47:23;;;;;;;8.13;5.57;;;;;;;;;;5060477;28;20212;-64
2021/12/07 15:49:56;;;;;;;12.87;6.57;;;;;;;;;;5078822;28;20210;-63
2021/12/07 15:52:31;;;;;;;11.43;6.10;;;;;;;;;;5077012;28;20213;-62
2021/12/07 15:55:06;;;;;;;11.87;6.97;;;;;;;;;;5073112;28;20205;-63
2021/12/07 15:58:00;;;;;;;56.03;34.17;;;;;;;;;;5048359;28;20198;-63
2021/12/07 16:00:38;;;;;;;17.37;12.97;;;;;;;;;;5035332;28;20221;-63
2021/12/07 16:03:15;;;;;;;11.20;5.63;;;;;;;;;;5051785;28;20264;-64
2021/12/07 16:05:48;;;;;;;13.07;8.50;;;;;;;;;;5070825;28;20559;-63
2021/12/07 16:08:17;;;;;;;11.83;7.67;;;;;;;;;;5063101;28;20216;-63
2021/12/07 16:10:46;;;;;;;10.80;7.50;;;;;;;;;;5065962;28;20218;-63
2021/12/07 16:13:15;;;;;;;10.83;7.53;;;;;;;;;;5064932;28;20213;-64
2021/12/07 16:15:44;;;;;;;10.00;5.90;;;;;;;;;;5064140;28;20201;-64
2021/12/07 16:18:12;;;;;;;10.87;6.53;;;;;;;;;;5076052;28;20745;-64
2021/12/07 16:20:40;;;;;;;13.60;9.43;;;;;;;;;;5075792;28;20233;-63
2021/12/07 16:23:08;;;;;;;16.20;10.63;;;;;;;;;;5073451;28;20226;-62
2021/12/07 16:25:37;;;;;;;14.57;11.33;;;;;;;;;;5070842;28;20657;-62
2021/12/07 16:28:25;;;;;;;8.07;5.50;;;;;;;;;;5062453;28;20202;-64
2021/12/07 16:30:52;;;;;;;12.67;6.80;;;;;;;;;;5076539;28;20226;-64
2021/12/07 16:33:20;;;;;;;11.57;6.57;;;;;;;;;;5057749;28;20210;-63
2021/12/07 16:35:47;;;;;;;9.63;5.57;;;;;;;;;;5059913;28;20198;-63
2021/12/07 16:38:15;;;;;;;8.13;5.13;;;;;;;;;;5074573;28;20457;-64